Terminal Aerodrome Forecast
Issued by NWS Quad Cities IA IL

Home | Current Version | Previous Version | Text Only | Print | Product List | Glossary On
Versions: 1 2 3 4 5 6 7 8 9 10 11 12 13 14 15 16 17 18 19 20 21 22 23 24
297
FTUS43 KDVN 020056 AAA
TAFMLI
TAF AMD
KMLI 020056Z 0201/0224 01006KT 3SM -RA BR SCT006 OVC060
     FM020200 36008KT 5SM BR SCT006 OVC035
     FM020400 36007KT 6SM BR OVC015
     FM021100 03008KT P6SM BKN025
     FM021500 05008KT P6SM SCT030 OVC050=

USA.gov is the U.S. government's official web portal to all federal, state and local government web resources and services.